createdAt,value
2022-12-31T00:01:03.955Z,1.32
2022-12-31T00:03:34.238Z,1.33
2022-12-31T00:06:02.448Z,1.31
2022-12-31T00:08:30.647Z,1.32
2022-12-31T00:10:58.958Z,1.27
2022-12-31T00:13:27.178Z,1.24
2022-12-31T00:15:55.576Z,1.28
2022-12-31T00:18:23.707Z,1.32
2022-12-31T00:20:53.378Z,1.29
2022-12-31T00:23:21.633Z,1.15
2022-12-31T00:25:49.943Z,1.21
2022-12-31T00:28:18.161Z,1.20
2022-12-31T00:30:46.272Z,1.10
2022-12-31T00:33:14.511Z,1.16
2022-12-31T00:35:42.685Z,1.27
2022-12-31T00:38:12.290Z,1.29
2022-12-31T00:40:40.525Z,1.26
2022-12-31T00:43:08.672Z,1.16
2022-12-31T00:45:36.862Z,1.15
2022-12-31T00:48:05.364Z,1.24
2022-12-31T00:50:33.567Z,1.21
2022-12-31T00:53:01.778Z,1.19
2022-12-31T00:55:31.721Z,1.26
2022-12-31T00:57:59.997Z,1.24
2022-12-31T01:00:28.262Z,1.24
2022-12-31T01:02:56.563Z,1.34
2022-12-31T01:05:24.999Z,1.35
2022-12-31T01:07:53.215Z,1.40
2022-12-31T01:10:41.510Z,1.40
2022-12-31T01:13:11.819Z,1.39
2022-12-31T01:15:40.771Z,1.43
2022-12-31T01:18:09.772Z,1.44
2022-12-31T01:20:39.194Z,1.47
2022-12-31T01:23:08.292Z,1.49
2022-12-31T01:25:37.265Z,1.65
2022-12-31T01:28:06.590Z,1.60
2022-12-31T01:30:39.898Z,1.59
2022-12-31T01:33:08.233Z,1.58
2022-12-31T01:35:37.618Z,1.60
2022-12-31T01:38:05.756Z,1.58
2022-12-31T01:40:38.214Z,1.54
2022-12-31T01:43:16.349Z,1.54
2022-12-31T01:45:49.337Z,1.62
2022-12-31T01:48:22.285Z,1.66
2022-12-31T01:50:52.325Z,1.68
2022-12-31T01:53:21.052Z,1.65
2022-12-31T01:55:51.974Z,1.68
2022-12-31T01:58:24.507Z,1.67
2022-12-31T02:00:54.988Z,1.70
2022-12-31T02:03:25.186Z,1.65
2022-12-31T02:05:59.677Z,1.60
2022-12-31T02:08:28.007Z,1.58
2022-12-31T02:10:56.201Z,1.44
2022-12-31T02:13:25.851Z,1.44
2022-12-31T02:16:01.677Z,1.45
2022-12-31T02:18:35.073Z,1.53
2022-12-31T02:21:32.315Z,1.54
2022-12-31T02:24:38.112Z,1.51
2022-12-31T02:27:11.951Z,1.55
2022-12-31T02:30:06.309Z,1.56
2022-12-31T02:32:48.993Z,1.64
2022-12-31T02:35:23.608Z,1.64
2022-12-31T02:37:58.929Z,1.60
2022-12-31T02:40:27.313Z,1.72
2022-12-31T02:42:55.945Z,1.73
2022-12-31T02:45:31.590Z,1.75
2022-12-31T02:48:15.995Z,1.64
2022-12-31T02:50:56.530Z,1.68
2022-12-31T02:53:40.695Z,1.70
2022-12-31T02:56:13.561Z,1.66
2022-12-31T02:59:07.307Z,1.66
2022-12-31T03:01:57.810Z,1.65
2022-12-31T03:04:33.773Z,1.64
2022-12-31T03:07:05.056Z,1.63
2022-12-31T03:09:33.657Z,1.73
2022-12-31T03:12:20.000Z,1.65
2022-12-31T03:14:48.328Z,1.56
2022-12-31T03:17:18.202Z,1.55
2022-12-31T03:20:04.144Z,1.57
2022-12-31T03:22:33.099Z,1.52
2022-12-31T03:25:21.088Z,1.48
2022-12-31T03:27:49.646Z,1.55
2022-12-31T03:30:20.098Z,1.46
2022-12-31T03:32:50.699Z,1.50
2022-12-31T03:35:21.564Z,1.49
2022-12-31T03:37:51.440Z,1.40
2022-12-31T03:40:21.236Z,1.37
2022-12-31T03:42:49.497Z,1.38
2022-12-31T03:45:17.877Z,1.40
2022-12-31T03:47:46.126Z,1.39
2022-12-31T03:50:18.272Z,1.44
2022-12-31T03:52:47.194Z,1.43
2022-12-31T03:55:16.768Z,1.47
2022-12-31T03:57:44.920Z,1.45
2022-12-31T04:00:16.058Z,1.49
2022-12-31T04:02:44.314Z,1.50
2022-12-31T04:05:13.378Z,1.54
2022-12-31T04:07:43.671Z,1.59
2022-12-31T04:10:15.711Z,1.59
2022-12-31T04:12:44.825Z,1.51
2022-12-31T04:15:16.703Z,1.60
2022-12-31T04:17:45.089Z,1.64
2022-12-31T04:20:13.539Z,1.67
2022-12-31T04:22:44.195Z,1.62
2022-12-31T04:25:13.073Z,1.61
2022-12-31T04:27:43.812Z,1.62
2022-12-31T04:30:13.986Z,1.61
2022-12-31T04:32:42.384Z,1.60
2022-12-31T04:35:11.654Z,1.72
2022-12-31T04:37:39.925Z,1.65
2022-12-31T04:40:10.990Z,1.60
2022-12-31T04:42:39.533Z,1.67
2022-12-31T04:45:09.112Z,1.70
2022-12-31T04:47:37.319Z,1.73
2022-12-31T04:50:06.337Z,1.75
2022-12-31T04:52:42.089Z,1.75
2022-12-31T04:55:12.643Z,1.67
2022-12-31T04:57:42.221Z,1.71
2022-12-31T05:00:11.501Z,1.77
2022-12-31T05:02:39.843Z,1.71
2022-12-31T05:05:08.754Z,1.82
2022-12-31T05:07:36.971Z,1.83
2022-12-31T05:10:06.057Z,1.75
2022-12-31T05:12:35.713Z,1.72
2022-12-31T05:15:03.928Z,1.73
2022-12-31T05:17:32.053Z,1.74
2022-12-31T05:20:00.261Z,1.75
2022-12-31T05:22:31.443Z,1.75
2022-12-31T05:25:00.724Z,1.73
2022-12-31T05:27:31.683Z,1.72
2022-12-31T05:30:01.699Z,1.67
2022-12-31T05:32:29.957Z,1.69
2022-12-31T05:34:58.298Z,1.71
2022-12-31T05:37:28.879Z,1.78
2022-12-31T05:39:57.329Z,1.77
2022-12-31T05:42:25.785Z,1.79
2022-12-31T05:44:53.905Z,1.83
2022-12-31T05:47:23.555Z,1.82
2022-12-31T05:49:51.706Z,1.82
2022-12-31T05:52:20.279Z,1.89
2022-12-31T05:54:48.583Z,1.89
2022-12-31T05:57:16.904Z,2.03
2022-12-31T05:59:45.237Z,2.01
2022-12-31T06:02:13.541Z,2.04
2022-12-31T06:04:43.160Z,2.10
2022-12-31T06:07:11.363Z,2.04
2022-12-31T06:09:39.581Z,2.07
2022-12-31T06:12:08.848Z,2.10
2022-12-31T06:14:40.847Z,2.10
2022-12-31T06:17:12.183Z,2.11
2022-12-31T06:19:40.313Z,2.14
2022-12-31T06:22:09.907Z,2.17
2022-12-31T06:24:38.091Z,2.14
2022-12-31T06:27:06.260Z,2.14
2022-12-31T06:29:34.432Z,2.17
2022-12-31T06:32:02.704Z,2.22
2022-12-31T06:34:30.927Z,2.30
2022-12-31T06:36:59.640Z,2.26
2022-12-31T06:39:29.291Z,2.21
2022-12-31T06:41:57.590Z,2.30
2022-12-31T06:44:25.834Z,2.30
2022-12-31T06:46:54.490Z,2.33
2022-12-31T06:49:22.647Z,2.31
2022-12-31T06:51:50.855Z,2.40
2022-12-31T06:54:19.105Z,2.33
2022-12-31T06:56:49.310Z,2.42
2022-12-31T06:59:26.305Z,2.32
2022-12-31T07:02:22.461Z,2.39
2022-12-31T07:05:11.188Z,2.42
2022-12-31T07:07:49.643Z,2.43
2022-12-31T07:10:30.036Z,2.60
2022-12-31T07:13:25.919Z,2.56
2022-12-31T07:16:08.630Z,2.52
2022-12-31T07:18:45.545Z,2.62
2022-12-31T07:21:15.611Z,2.72
2022-12-31T07:23:44.568Z,2.67
2022-12-31T07:26:19.915Z,2.74
2022-12-31T07:29:00.048Z,2.78
2022-12-31T07:31:41.364Z,2.83
2022-12-31T07:34:22.517Z,2.89
2022-12-31T07:37:03.596Z,2.91
2022-12-31T07:39:41.664Z,3.12
2022-12-31T07:42:18.990Z,3.53
2022-12-31T07:45:00.218Z,3.69
2022-12-31T07:47:29.856Z,3.92
2022-12-31T07:49:59.117Z,4.02
2022-12-31T07:52:28.103Z,4.30
2022-12-31T07:54:56.289Z,4.34
2022-12-31T07:57:34.768Z,4.35
2022-12-31T08:00:08.301Z,4.41
2022-12-31T08:03:09.876Z,4.44
2022-12-31T08:05:50.832Z,4.27
2022-12-31T08:08:30.719Z,4.57
2022-12-31T08:11:08.339Z,4.68
2022-12-31T08:13:36.833Z,4.66
2022-12-31T08:16:10.873Z,4.78
2022-12-31T08:18:39.896Z,4.91
2022-12-31T08:21:17.729Z,4.86
2022-12-31T08:23:54.628Z,4.74
2022-12-31T08:26:32.661Z,4.79
2022-12-31T08:29:13.391Z,4.84
2022-12-31T08:31:54.022Z,4.67
2022-12-31T08:34:31.722Z,4.66
2022-12-31T08:37:05.887Z,4.71
2022-12-31T08:39:54.658Z,4.73
2022-12-31T08:42:29.677Z,4.73
2022-12-31T08:45:10.145Z,4.82
2022-12-31T08:47:47.746Z,4.98
2022-12-31T08:50:17.612Z,4.88
2022-12-31T08:52:46.619Z,5.03
2022-12-31T08:55:17.142Z,5.10
2022-12-31T08:57:56.338Z,5.13
2022-12-31T09:00:25.041Z,5.25
2022-12-31T09:03:24.562Z,5.21
2022-12-31T09:06:02.486Z,5.13
2022-12-31T09:08:42.087Z,5.07
2022-12-31T09:11:22.593Z,5.15
2022-12-31T09:14:07.495Z,5.13
2022-12-31T09:16:49.463Z,5.19
2022-12-31T09:19:19.089Z,5.27
2022-12-31T09:21:47.904Z,5.31
2022-12-31T09:24:17.463Z,5.43
2022-12-31T09:26:53.679Z,5.32
2022-12-31T09:29:36.728Z,5.26
2022-12-31T09:32:13.512Z,5.31
2022-12-31T09:34:50.786Z,5.36
2022-12-31T09:37:25.993Z,5.44
2022-12-31T09:39:58.483Z,5.43
2022-12-31T09:42:58.947Z,5.53
2022-12-31T09:45:55.821Z,5.62
2022-12-31T09:48:54.256Z,5.70
2022-12-31T09:51:30.648Z,5.72
2022-12-31T09:54:30.198Z,5.85
2022-12-31T09:57:17.146Z,5.88
2022-12-31T09:59:52.577Z,5.96
2022-12-31T10:02:40.064Z,6.01
2022-12-31T10:05:32.606Z,5.98
2022-12-31T10:08:14.460Z,6.10
2022-12-31T10:10:53.535Z,6.22
2022-12-31T10:13:44.039Z,6.18
2022-12-31T10:16:24.211Z,6.29
2022-12-31T10:19:14.707Z,6.37
2022-12-31T10:21:55.102Z,6.42
2022-12-31T10:24:50.680Z,6.54
2022-12-31T10:27:29.868Z,6.49
2022-12-31T10:30:03.607Z,6.56
2022-12-31T10:32:43.450Z,6.66
2022-12-31T10:35:29.394Z,6.87
2022-12-31T10:38:13.490Z,6.91
2022-12-31T10:41:01.993Z,7.00
2022-12-31T10:44:11.433Z,7.33
2022-12-31T10:47:22.638Z,7.36
2022-12-31T10:50:33.604Z,7.50
2022-12-31T10:53:32.734Z,7.85
2022-12-31T10:56:32.267Z,7.94
2022-12-31T10:59:30.393Z,8.04
2022-12-31T11:02:16.480Z,8.23
2022-12-31T11:05:13.094Z,8.29
2022-12-31T11:07:57.675Z,8.51
2022-12-31T11:11:07.599Z,8.81
2022-12-31T11:14:05.586Z,8.89
2022-12-31T11:16:49.665Z,9.20
2022-12-31T11:19:26.777Z,9.26
2022-12-31T11:22:14.097Z,9.59
2022-12-31T11:25:00.109Z,9.66
2022-12-31T11:27:51.854Z,9.87
2022-12-31T11:30:26.197Z,10.10
2022-12-31T11:33:06.239Z,10.56
2022-12-31T11:35:51.002Z,10.99
2022-12-31T11:38:26.033Z,11.05
2022-12-31T11:41:03.873Z,11.39
2022-12-31T11:43:38.513Z,11.51
2022-12-31T11:46:37.961Z,11.57
2022-12-31T11:49:36.693Z,11.70
2022-12-31T11:52:24.129Z,11.48
2022-12-31T11:55:04.585Z,11.23
2022-12-31T11:57:35.902Z,11.50
2022-12-31T12:00:14.110Z,11.84
2022-12-31T12:02:47.091Z,11.90
2022-12-31T12:05:17.393Z,11.87
2022-12-31T12:07:45.678Z,11.74
2022-12-31T12:10:27.900Z,11.95
2022-12-31T12:13:00.731Z,12.20
2022-12-31T12:15:30.891Z,12.34
2022-12-31T12:18:05.901Z,12.18
2022-12-31T12:20:37.438Z,12.12
2022-12-31T12:23:16.520Z,11.91
2022-12-31T12:25:46.139Z,11.79
2022-12-31T12:28:23.772Z,11.90
2022-12-31T12:30:57.915Z,11.85
2022-12-31T12:33:29.845Z,11.76
2022-12-31T12:36:09.103Z,11.58
2022-12-31T12:38:38.054Z,11.63
2022-12-31T12:41:09.050Z,11.65
2022-12-31T12:43:38.614Z,11.47
2022-12-31T12:46:18.245Z,11.35
2022-12-31T12:48:50.591Z,11.20
2022-12-31T12:51:32.204Z,11.28
2022-12-31T12:54:06.979Z,11.07
2022-12-31T12:56:41.991Z,11.12
2022-12-31T12:59:35.355Z,11.14
2022-12-31T13:02:16.191Z,11.65
2022-12-31T13:04:58.372Z,11.66
2022-12-31T13:07:39.037Z,11.99
2022-12-31T13:10:26.194Z,12.52
2022-12-31T13:13:23.261Z,12.98
2022-12-31T13:15:58.116Z,13.36
2022-12-31T13:18:44.813Z,13.39
2022-12-31T13:21:41.756Z,13.59
2022-12-31T13:24:23.188Z,13.64
2022-12-31T13:26:58.734Z,13.71
2022-12-31T13:29:31.552Z,13.57
2022-12-31T13:32:04.880Z,13.43
2022-12-31T13:34:36.384Z,13.05
2022-12-31T13:37:15.742Z,13.11
2022-12-31T13:39:46.292Z,13.10
2022-12-31T13:42:21.420Z,13.49
2022-12-31T13:44:56.137Z,13.56
2022-12-31T13:47:33.764Z,13.53
2022-12-31T13:50:14.153Z,13.36
2022-12-31T13:52:50.122Z,13.33
2022-12-31T13:55:24.275Z,13.24
2022-12-31T13:57:55.964Z,13.39
2022-12-31T14:00:26.744Z,13.24
2022-12-31T14:03:04.141Z,13.33
2022-12-31T14:05:35.394Z,13.29
2022-12-31T14:08:07.024Z,13.20
2022-12-31T14:10:58.961Z,12.98
2022-12-31T14:13:41.935Z,12.79
2022-12-31T14:16:20.628Z,12.74
2022-12-31T14:18:56.644Z,12.77
2022-12-31T14:21:30.369Z,12.57
2022-12-31T14:24:06.969Z,12.83
2022-12-31T14:26:40.034Z,12.55
2022-12-31T14:29:21.874Z,12.23
2022-12-31T14:32:09.657Z,11.95
2022-12-31T14:34:49.857Z,11.68
2022-12-31T14:37:28.404Z,11.61
2022-12-31T14:40:07.721Z,11.51
2022-12-31T14:42:45.067Z,11.03
2022-12-31T14:45:29.694Z,10.76
2022-12-31T14:48:06.071Z,10.45
2022-12-31T14:50:35.111Z,10.20
2022-12-31T14:53:10.564Z,10.11
2022-12-31T14:56:06.871Z,9.86
2022-12-31T14:58:37.373Z,9.71
2022-12-31T15:01:09.126Z,9.47
2022-12-31T15:03:44.982Z,9.44
2022-12-31T15:06:37.099Z,9.26
2022-12-31T15:09:16.490Z,9.09
2022-12-31T15:12:04.599Z,9.03
2022-12-31T15:15:08.271Z,8.89
2022-12-31T15:17:50.629Z,8.93
2022-12-31T15:20:47.063Z,8.86
2022-12-31T15:23:22.190Z,8.80
2022-12-31T15:25:59.773Z,8.70
2022-12-31T15:28:34.849Z,8.48
2022-12-31T15:31:07.029Z,8.24
2022-12-31T15:33:39.774Z,8.06
2022-12-31T15:36:17.922Z,7.76
2022-12-31T15:38:50.924Z,7.66
2022-12-31T15:41:37.465Z,7.49
2022-12-31T15:44:16.154Z,7.23
2022-12-31T15:46:45.390Z,7.21
2022-12-31T15:49:18.609Z,7.13
2022-12-31T15:51:51.923Z,7.07
2022-12-31T15:54:28.701Z,6.99
2022-12-31T15:56:56.952Z,7.06
2022-12-31T15:59:28.494Z,6.99
2022-12-31T16:01:58.122Z,6.87
2022-12-31T16:04:29.067Z,6.84
2022-12-31T16:07:01.271Z,6.71
2022-12-31T16:09:34.222Z,6.62
2022-12-31T16:12:05.009Z,6.68
2022-12-31T16:14:38.536Z,6.59
2022-12-31T16:17:07.890Z,6.56
2022-12-31T16:19:42.528Z,6.40
2022-12-31T16:22:16.997Z,6.26
2022-12-31T16:25:10.813Z,6.14
2022-12-31T16:27:36.676Z,6.03
2022-12-31T16:30:17.552Z,5.93
2022-12-31T16:32:48.677Z,5.83
2022-12-31T16:35:26.320Z,5.69
2022-12-31T16:38:11.730Z,5.60
2022-12-31T16:40:40.690Z,5.53
2022-12-31T16:43:25.983Z,5.53
2022-12-31T16:45:57.966Z,5.47
2022-12-31T16:48:26.591Z,5.42
2022-12-31T16:50:57.093Z,5.32
2022-12-31T16:53:28.095Z,5.35
2022-12-31T16:55:58.417Z,5.20
2022-12-31T16:58:30.835Z,5.19
2022-12-31T17:01:13.833Z,5.12
2022-12-31T17:03:45.769Z,5.06
2022-12-31T17:06:16.987Z,5.03
2022-12-31T17:08:47.366Z,4.95
2022-12-31T17:11:28.250Z,5.01
2022-12-31T17:13:58.723Z,4.85
2022-12-31T17:16:28.791Z,4.83
2022-12-31T17:18:57.166Z,4.76
2022-12-31T17:21:28.649Z,4.76
2022-12-31T17:24:00.625Z,4.74
2022-12-31T17:26:30.994Z,4.65
2022-12-31T17:29:01.448Z,4.70
2022-12-31T17:31:34.406Z,4.64
2022-12-31T17:34:19.143Z,4.55
2022-12-31T17:36:57.408Z,4.56
2022-12-31T17:39:26.449Z,4.54
2022-12-31T17:41:58.841Z,4.49
2022-12-31T17:44:29.341Z,4.41
2022-12-31T17:46:59.296Z,4.44
2022-12-31T17:49:31.296Z,4.46
2022-12-31T17:51:59.627Z,4.52
2022-12-31T17:54:27.881Z,4.58
2022-12-31T17:56:56.269Z,4.46
2022-12-31T17:59:29.870Z,4.43
2022-12-31T18:02:03.153Z,4.43
2022-12-31T18:04:31.541Z,4.42
2022-12-31T18:06:59.870Z,4.38
2022-12-31T18:09:28.143Z,4.24
2022-12-31T18:12:01.396Z,4.21
2022-12-31T18:14:30.234Z,4.13
2022-12-31T18:16:58.542Z,4.12
2022-12-31T18:22:17.548Z,4.04
2022-12-31T18:24:45.873Z,4.06
2022-12-31T18:27:18.516Z,4.05
2022-12-31T18:29:47.176Z,4.01
2022-12-31T18:32:21.931Z,3.99
2022-12-31T18:34:52.434Z,3.96
2022-12-31T18:37:22.524Z,3.99
2022-12-31T18:39:51.029Z,4.02
2022-12-31T18:42:20.558Z,3.96
2022-12-31T18:44:48.759Z,3.85
2022-12-31T18:47:19.941Z,3.84
2022-12-31T18:49:48.822Z,3.76
2022-12-31T18:52:20.390Z,3.78
2022-12-31T18:54:49.412Z,3.74
2022-12-31T18:57:17.939Z,3.74
2022-12-31T18:59:46.231Z,3.68
2022-12-31T19:02:21.131Z,3.66
2022-12-31T19:04:49.380Z,3.61
2022-12-31T19:07:18.967Z,3.62
2022-12-31T19:09:49.140Z,3.49
2022-12-31T19:12:19.795Z,3.47
2022-12-31T19:14:48.107Z,3.41
2022-12-31T19:17:16.344Z,3.41
2022-12-31T19:19:44.544Z,3.37
2022-12-31T19:22:16.134Z,3.36
2022-12-31T19:24:46.454Z,3.35
2022-12-31T19:27:14.945Z,3.21
2022-12-31T19:29:43.160Z,3.22
2022-12-31T19:32:11.374Z,3.24
2022-12-31T19:34:39.618Z,3.15
2022-12-31T19:37:07.794Z,3.13
2022-12-31T19:39:36.004Z,3.09
2022-12-31T19:42:06.071Z,3.09
2022-12-31T19:44:34.527Z,3.04
2022-12-31T19:47:02.734Z,3.10
2022-12-31T19:49:30.925Z,3.03
2022-12-31T19:51:59.156Z,3.01
2022-12-31T19:54:27.421Z,2.99
2022-12-31T19:56:55.833Z,2.95
2022-12-31T19:59:25.448Z,2.88
2022-12-31T20:01:53.779Z,2.77
2022-12-31T20:04:22.542Z,2.88
2022-12-31T20:06:50.709Z,2.81
2022-12-31T20:09:18.900Z,2.77
2022-12-31T20:11:47.078Z,2.73
2022-12-31T20:14:15.357Z,2.65
2022-12-31T20:16:45.057Z,2.67
2022-12-31T20:19:13.412Z,2.72
2022-12-31T20:21:42.037Z,2.77
2022-12-31T20:24:10.232Z,2.59
2022-12-31T20:26:38.442Z,2.61
2022-12-31T20:29:06.623Z,2.58
2022-12-31T20:31:34.792Z,2.59
2022-12-31T20:34:04.441Z,2.54
2022-12-31T20:36:32.757Z,2.53
2022-12-31T20:39:00.992Z,2.52
2022-12-31T20:41:29.206Z,2.46
2022-12-31T20:43:57.317Z,2.38
2022-12-31T20:46:27.404Z,2.36
2022-12-31T20:48:57.419Z,2.39
2022-12-31T20:51:28.115Z,2.36
2022-12-31T20:53:57.768Z,2.30
2022-12-31T20:56:30.188Z,2.34
2022-12-31T20:58:58.792Z,2.35
2022-12-31T21:01:41.390Z,2.30
2022-12-31T21:04:16.415Z,2.18
2022-12-31T21:06:47.055Z,2.24
2022-12-31T21:09:15.388Z,2.18
2022-12-31T21:12:01.187Z,2.19
2022-12-31T21:14:29.418Z,2.12
2022-12-31T21:16:57.745Z,2.10
2022-12-31T21:19:25.944Z,2.07
2022-12-31T21:21:55.576Z,2.02
2022-12-31T21:24:24.374Z,2.04
2022-12-31T21:26:53.057Z,2.01
2022-12-31T21:29:21.309Z,2.04
2022-12-31T21:31:49.853Z,2.05
2022-12-31T21:34:18.181Z,1.97
2022-12-31T21:36:46.323Z,1.95
2022-12-31T21:39:15.952Z,1.93
2022-12-31T21:41:53.002Z,1.98
2022-12-31T21:44:23.137Z,1.91
2022-12-31T21:47:33.137Z,1.93
2022-12-31T21:49:42.936Z,1.91
2022-12-31T21:52:30.766Z,1.88
2022-12-31T21:55:20.396Z,1.83
2022-12-31T22:00:55.932Z,1.79
2022-12-31T22:03:27.934Z,1.80
2022-12-31T22:06:00.191Z,1.73
2022-12-31T22:08:30.040Z,1.81
2022-12-31T22:10:59.767Z,1.79
2022-12-31T22:13:28.029Z,1.65
2022-12-31T22:16:04.323Z,1.74
2022-12-31T22:18:35.784Z,1.69
2022-12-31T22:21:09.614Z,1.63
2022-12-31T22:23:43.479Z,1.62
2022-12-31T22:26:16.201Z,1.64
2022-12-31T22:28:45.231Z,1.58
2022-12-31T22:31:15.487Z,1.53
2022-12-31T22:33:44.256Z,1.50
2022-12-31T22:36:14.425Z,1.63
2022-12-31T22:38:43.072Z,1.61
2022-12-31T22:41:14.473Z,1.62
2022-12-31T22:43:44.901Z,1.60
2022-12-31T22:46:15.069Z,1.54
2022-12-31T22:48:43.537Z,1.59
2022-12-31T22:51:13.213Z,1.49
2022-12-31T22:53:43.372Z,1.54
2022-12-31T22:56:15.509Z,1.49
2022-12-31T22:58:44.311Z,1.46
2022-12-31T23:01:18.514Z,1.44
2022-12-31T23:03:47.335Z,1.42
2022-12-31T23:06:15.621Z,1.39
2022-12-31T23:09:04.865Z,1.33
2022-12-31T23:11:35.469Z,1.38
2022-12-31T23:14:21.850Z,1.31
2022-12-31T23:17:29.811Z,1.33
2022-12-31T23:20:13.188Z,1.26
2022-12-31T23:22:58.922Z,1.23
2022-12-31T23:25:27.086Z,1.34
2022-12-31T23:27:56.771Z,1.39
2022-12-31T23:30:25.730Z,1.43
2022-12-31T23:32:53.955Z,1.35
2022-12-31T23:35:22.373Z,1.38
2022-12-31T23:37:50.560Z,1.35
2022-12-31T23:40:21.621Z,1.34
2022-12-31T23:42:50.446Z,1.29
2022-12-31T23:45:20.187Z,1.28
2022-12-31T23:47:48.462Z,1.27
2022-12-31T23:50:16.804Z,1.33
2022-12-31T23:52:45.032Z,1.29
2022-12-31T23:55:13.268Z,1.25
2022-12-31T23:57:41.672Z,1.28
